Time;durP1;ratioP1;P1;durP2;ratioP2;P2;SDS_P1;SDS_P2;PMS_P1;PMS_P2;Temp;Humidity;BMP_temperature;BMP_pressure;BME280_temperature;BME280_humidity;BME280_pressure;Samples;Min_cycle;Max_cycle;Signal;HPM_P1;HPM_P2
2021/01/21 00:00:56;;;;;;;5.40;1.70;;;;;;;;;;5096299;28;20539;-72
2021/01/21 00:03:23;;;;;;;2.30;1.20;;;;;;;;;;5096938;28;20937;-72
2021/01/21 00:05:51;;;;;;;4.67;1.60;;;;;;;;;;5075372;28;20453;-73
2021/01/21 00:08:18;;;;;;;3.37;1.60;;;;;;;;;;5075215;28;20469;-73
2021/01/21 00:10:45;;;;;;;5.77;1.77;;;;;;;;;;5075938;28;20459;-73
2021/01/21 00:13:13;;;;;;;7.33;2.30;;;;;;;;;;5084166;28;20467;-73
2021/01/21 00:15:41;;;;;;;4.27;1.70;;;;;;;;;;5096176;28;20466;-73
2021/01/21 00:18:08;;;;;;;5.00;1.50;;;;;;;;;;5095236;28;20785;-73
2021/01/21 00:20:36;;;;;;;3.50;1.77;;;;;;;;;;5095840;28;20467;-72
2021/01/21 00:23:03;;;;;;;3.43;1.50;;;;;;;;;;5096090;28;20485;-73
2021/01/21 00:25:31;;;;;;;3.93;1.43;;;;;;;;;;5096630;28;20448;-73
2021/01/21 00:27:59;;;;;;;4.63;1.20;;;;;;;;;;5100394;28;20537;-73
2021/01/21 00:30:26;;;;;;;3.97;1.77;;;;;;;;;;5100174;28;20448;-73
2021/01/21 00:32:55;;;;;;;5.70;1.93;;;;;;;;;;5100029;28;20460;-73
2021/01/21 00:35:23;;;;;;;4.83;1.83;;;;;;;;;;5099830;28;20444;-73
2021/01/21 00:37:50;;;;;;;3.73;1.60;;;;;;;;;;5098804;28;20463;-73
2021/01/21 00:40:18;;;;;;;3.97;1.60;;;;;;;;;;5099986;28;20455;-73
2021/01/21 00:42:45;;;;;;;3.73;1.37;;;;;;;;;;5100052;28;20448;-71
2021/01/21 00:45:13;;;;;;;2.57;1.30;;;;;;;;;;5099980;28;20875;-73
2021/01/21 00:47:40;;;;;;;3.60;1.77;;;;;;;;;;5099365;28;20448;-72
2021/01/21 00:50:09;;;;;;;4.80;2.17;;;;;;;;;;5099234;28;20787;-73
2021/01/21 00:52:42;;;;;;;3.20;1.53;;;;;;;;;;5099494;28;20459;-73
2021/01/21 00:55:10;;;;;;;2.60;1.30;;;;;;;;;;5099762;28;20488;-73
2021/01/21 00:57:37;;;;;;;2.87;1.40;;;;;;;;;;5098988;28;20485;-73
2021/01/21 01:00:07;;;;;;;4.97;1.40;;;;;;;;;;5095306;28;20445;-72
2021/01/21 01:02:35;;;;;;;2.90;1.70;;;;;;;;;;5094997;28;20805;-72
2021/01/21 01:05:03;;;;;;;3.70;1.20;;;;;;;;;;5095756;28;20859;-73
2021/01/21 01:07:32;;;;;;;4.40;1.83;;;;;;;;;;5097322;28;20478;-73
2021/01/21 01:10:00;;;;;;;3.23;1.40;;;;;;;;;;5097494;28;20460;-72
2021/01/21 01:12:27;;;;;;;3.30;1.37;;;;;;;;;;5098123;28;20476;-72
2021/01/21 01:15:02;;;;;;;4.10;1.10;;;;;;;;;;5097626;28;20464;-72
2021/01/21 01:17:29;;;;;;;2.97;1.40;;;;;;;;;;5097079;28;20463;-72
2021/01/21 01:20:00;;;;;;;2.90;1.30;;;;;;;;;;5097099;28;20950;-72
2021/01/21 01:22:27;;;;;;;4.43;1.50;;;;;;;;;;5097504;28;20974;-73
2021/01/21 01:24:56;;;;;;;2.87;1.40;;;;;;;;;;5097839;28;20868;-72
2021/01/21 01:27:24;;;;;;;2.67;1.20;;;;;;;;;;5096879;28;20548;-73
2021/01/21 01:29:51;;;;;;;2.27;1.40;;;;;;;;;;5096873;28;20448;-73
2021/01/21 01:32:19;;;;;;;6.90;2.37;;;;;;;;;;5096927;28;20448;-72
2021/01/21 01:34:50;;;;;;;3.87;1.53;;;;;;;;;;5096835;28;20441;-72
2021/01/21 01:37:18;;;;;;;4.33;1.40;;;;;;;;;;5095428;28;20689;-72
2021/01/21 01:39:46;;;;;;;2.20;0.90;;;;;;;;;;5097326;28;20630;-72
2021/01/21 01:42:14;;;;;;;3.47;1.80;;;;;;;;;;5097714;28;20480;-73
2021/01/21 01:44:42;;;;;;;6.53;1.77;;;;;;;;;;5097852;28;20886;-73
2021/01/21 01:47:09;;;;;;;2.67;1.53;;;;;;;;;;5097909;28;20690;-73
2021/01/21 01:49:37;;;;;;;4.00;1.63;;;;;;;;;;5098093;28;20456;-73
2021/01/21 01:52:05;;;;;;;3.47;1.47;;;;;;;;;;5098437;28;20462;-75
2021/01/21 01:54:32;;;;;;;3.80;1.57;;;;;;;;;;5096874;28;20459;-72
2021/01/21 01:57:00;;;;;;;3.97;1.37;;;;;;;;;;5097941;28;20997;-72
2021/01/21 01:59:28;;;;;;;4.27;1.60;;;;;;;;;;5097581;28;20476;-72
2021/01/21 02:01:55;;;;;;;3.70;1.57;;;;;;;;;;5096239;28;20452;-72
2021/01/21 02:04:28;;;;;;;5.40;1.30;;;;;;;;;;5093170;28;20468;-72
2021/01/21 02:06:55;;;;;;;5.00;1.70;;;;;;;;;;5097016;28;20876;-73
2021/01/21 02:09:22;;;;;;;5.23;1.57;;;;;;;;;;5083805;28;20464;-73
2021/01/21 02:11:56;;;;;;;3.30;1.30;;;;;;;;;;5091622;28;20452;-73
2021/01/21 02:14:26;;;;;;;3.20;1.50;;;;;;;;;;5097794;28;20464;-71
2021/01/21 02:17:00;;;;;;;2.30;0.93;;;;;;;;;;5097061;28;20463;-74
2021/01/21 02:19:46;;;;;;;2.90;1.50;;;;;;;;;;5096954;28;20627;-73
2021/01/21 02:22:32;;;;;;;3.20;1.20;;;;;;;;;;5095744;28;20710;-73
2021/01/21 02:25:07;;;;;;;2.43;1.33;;;;;;;;;;5057505;28;20619;-71
2021/01/21 02:27:43;;;;;;;3.67;1.60;;;;;;;;;;5096601;28;20528;-73
2021/01/21 02:30:17;;;;;;;2.50;1.20;;;;;;;;;;5097116;28;20447;-72
2021/01/21 02:32:55;;;;;;;5.00;1.30;;;;;;;;;;5089828;28;20879;-73
2021/01/21 02:35:24;;;;;;;4.47;1.30;;;;;;;;;;5096292;28;20514;-73
2021/01/21 02:37:54;;;;;;;11.53;2.80;;;;;;;;;;5097087;28;20460;-73
2021/01/21 02:40:25;;;;;;;2.20;1.10;;;;;;;;;;5096872;28;20452;-72
2021/01/21 02:42:53;;;;;;;2.50;1.20;;;;;;;;;;5097042;28;20705;-72
2021/01/21 02:45:20;;;;;;;3.80;1.60;;;;;;;;;;5097150;28;20859;-72
2021/01/21 02:47:48;;;;;;;5.30;1.23;;;;;;;;;;5096718;28;20456;-72
2021/01/21 02:50:15;;;;;;;4.97;1.57;;;;;;;;;;5096818;28;20464;-73
2021/01/21 02:52:45;;;;;;;3.30;1.30;;;;;;;;;;5096989;28;20470;-72
2021/01/21 02:55:20;;;;;;;3.13;1.40;;;;;;;;;;5097002;28;20712;-73
2021/01/21 02:57:51;;;;;;;4.30;1.60;;;;;;;;;;5095811;28;20463;-73
2021/01/21 03:00:19;;;;;;;3.13;1.33;;;;;;;;;;5092690;28;20455;-72
2021/01/21 03:02:47;;;;;;;3.90;1.47;;;;;;;;;;5080537;28;20891;-72
2021/01/21 03:05:15;;;;;;;3.60;1.40;;;;;;;;;;5095655;28;20465;-73
2021/01/21 03:07:43;;;;;;;5.17;1.77;;;;;;;;;;5096577;28;20456;-72
2021/01/21 03:10:11;;;;;;;2.37;1.40;;;;;;;;;;5079668;28;20453;-72
2021/01/21 03:12:39;;;;;;;4.10;1.47;;;;;;;;;;5083842;28;20484;-72
2021/01/21 03:15:07;;;;;;;3.13;1.30;;;;;;;;;;5098179;28;20448;-72
2021/01/21 03:17:35;;;;;;;4.77;1.73;;;;;;;;;;5096184;28;20867;-73
2021/01/21 03:20:02;;;;;;;3.63;1.73;;;;;;;;;;5095939;28;20789;-73
2021/01/21 03:22:29;;;;;;;5.67;1.30;;;;;;;;;;5095767;28;20498;-73
2021/01/21 03:24:58;;;;;;;4.60;1.77;;;;;;;;;;5096638;28;20460;-73
2021/01/21 03:27:25;;;;;;;2.77;1.03;;;;;;;;;;5097298;28;20456;-73
2021/01/21 03:29:53;;;;;;;5.13;1.80;;;;;;;;;;5096278;28;20443;-73
2021/01/21 03:32:20;;;;;;;3.73;1.10;;;;;;;;;;5096450;28;20502;-73
2021/01/21 03:34:48;;;;;;;3.20;1.60;;;;;;;;;;5096414;28;20458;-73
2021/01/21 03:37:15;;;;;;;5.57;1.57;;;;;;;;;;5096263;28;20755;-73
2021/01/21 03:39:42;;;;;;;4.20;1.50;;;;;;;;;;5093925;28;20488;-73
2021/01/21 03:42:13;;;;;;;3.90;1.90;;;;;;;;;;5079024;28;20455;-73
2021/01/21 03:44:44;;;;;;;4.27;2.03;;;;;;;;;;5081141;28;20548;-73
2021/01/21 03:47:12;;;;;;;3.70;1.57;;;;;;;;;;5096091;28;20487;-73
2021/01/21 03:49:45;;;;;;;5.23;1.43;;;;;;;;;;5096358;28;20548;-72
2021/01/21 03:52:12;;;;;;;4.37;1.60;;;;;;;;;;5094865;28;20456;-72
2021/01/21 03:54:39;;;;;;;6.43;1.73;;;;;;;;;;5076993;28;20895;-72
2021/01/21 03:57:10;;;;;;;10.00;1.60;;;;;;;;;;5075918;28;20519;-72
2021/01/21 03:59:42;;;;;;;3.93;1.70;;;;;;;;;;5076182;28;20936;-72
2021/01/21 04:02:12;;;;;;;6.40;1.43;;;;;;;;;;5079429;28;20453;-72
2021/01/21 04:04:40;;;;;;;6.60;1.67;;;;;;;;;;5079850;28;20453;-72
2021/01/21 04:07:07;;;;;;;2.77;1.63;;;;;;;;;;5082167;28;20490;-73
2021/01/21 04:09:35;;;;;;;3.20;1.63;;;;;;;;;;5100122;28;20476;-73
2021/01/21 04:12:02;;;;;;;4.77;1.43;;;;;;;;;;5099111;28;20488;-72
2021/01/21 04:14:32;;;;;;;3.93;1.83;;;;;;;;;;5099794;28;20942;-72
2021/01/21 04:17:01;;;;;;;3.07;1.27;;;;;;;;;;5098467;28;20482;-72
2021/01/21 04:19:28;;;;;;;3.80;1.53;;;;;;;;;;5099715;28;20491;-72
2021/01/21 04:21:55;;;;;;;5.10;1.97;;;;;;;;;;5100831;28;20455;-72
2021/01/21 04:24:26;;;;;;;2.80;1.30;;;;;;;;;;5098168;28;20471;-73
2021/01/21 04:26:53;;;;;;;2.50;1.27;;;;;;;;;;5100170;28;20460;-72
2021/01/21 04:29:21;;;;;;;4.70;1.47;;;;;;;;;;5100714;28;20532;-72
2021/01/21 04:31:48;;;;;;;2.90;1.67;;;;;;;;;;5086111;28;20484;-73
2021/01/21 04:34:17;;;;;;;4.10;1.40;;;;;;;;;;5079976;28;20452;-72
2021/01/21 04:36:44;;;;;;;5.10;1.47;;;;;;;;;;5079079;28;20453;-72
2021/01/21 04:39:12;;;;;;;3.40;1.60;;;;;;;;;;5078462;28;20533;-72
2021/01/21 04:41:39;;;;;;;3.93;1.67;;;;;;;;;;5078964;28;20473;-72
2021/01/21 04:44:07;;;;;;;5.63;1.93;;;;;;;;;;5078577;28;20540;-73
2021/01/21 04:46:34;;;;;;;3.17;2.20;;;;;;;;;;5078657;28;20453;-72
2021/01/21 04:49:03;;;;;;;3.13;1.20;;;;;;;;;;5091062;28;20539;-73
2021/01/21 04:51:32;;;;;;;3.77;1.40;;;;;;;;;;5099378;28;20467;-72
2021/01/21 04:54:01;;;;;;;5.90;1.43;;;;;;;;;;5098965;28;20742;-72
2021/01/21 04:56:29;;;;;;;2.00;0.80;;;;;;;;;;5098944;28;20453;-72
2021/01/21 04:58:59;;;;;;;2.70;1.30;;;;;;;;;;5098231;28;20945;-72
2021/01/21 05:01:27;;;;;;;3.27;1.20;;;;;;;;;;5099893;28;20536;-72
2021/01/21 05:03:54;;;;;;;5.60;1.97;;;;;;;;;;5098250;28;20485;-72
2021/01/21 05:06:22;;;;;;;5.17;1.20;;;;;;;;;;5097927;28;20869;-72
2021/01/21 05:08:51;;;;;;;5.30;1.37;;;;;;;;;;5098651;28;21030;-72
2021/01/21 05:11:18;;;;;;;8.30;1.60;;;;;;;;;;5098930;28;20468;-72
2021/01/21 05:13:45;;;;;;;4.10;1.10;;;;;;;;;;5097514;28;20455;-72
2021/01/21 05:16:13;;;;;;;3.37;1.70;;;;;;;;;;5098336;28;20464;-72
2021/01/21 05:18:41;;;;;;;3.00;1.23;;;;;;;;;;5098086;28;20483;-72
2021/01/21 05:21:09;;;;;;;4.30;1.00;;;;;;;;;;5098809;28;20464;-72
2021/01/21 05:23:37;;;;;;;2.00;0.90;;;;;;;;;;5098972;28;20484;-72
2021/01/21 05:26:05;;;;;;;5.70;1.57;;;;;;;;;;5098612;28;20530;-72
2021/01/21 05:28:32;;;;;;;3.90;1.07;;;;;;;;;;5097513;28;20470;-72
2021/01/21 05:31:00;;;;;;;2.97;0.97;;;;;;;;;;5098599;28;20486;-72
2021/01/21 05:33:31;;;;;;;3.23;1.20;;;;;;;;;;5098071;28;20454;-72
2021/01/21 05:35:58;;;;;;;3.10;0.90;;;;;;;;;;5097464;28;20503;-72
2021/01/21 05:38:26;;;;;;;2.90;1.30;;;;;;;;;;5097661;28;20515;-72
2021/01/21 05:40:54;;;;;;;2.53;1.10;;;;;;;;;;5097288;28;20723;-72
2021/01/21 05:43:24;;;;;;;2.67;1.40;;;;;;;;;;5097651;28;20459;-72
2021/01/21 05:45:52;;;;;;;2.70;1.03;;;;;;;;;;5097094;28;20460;-72
2021/01/21 05:48:22;;;;;;;3.20;1.40;;;;;;;;;;5096979;28;20465;-72
2021/01/21 05:50:50;;;;;;;2.67;1.07;;;;;;;;;;5098304;28;20460;-71
2021/01/21 05:53:17;;;;;;;2.93;1.10;;;;;;;;;;5098375;28;20579;-72
2021/01/21 05:55:45;;;;;;;3.10;1.17;;;;;;;;;;5097029;28;20463;-72
2021/01/21 05:58:13;;;;;;;5.40;1.70;;;;;;;;;;5095702;28;20855;-72
2021/01/21 06:00:44;;;;;;;8.97;1.37;;;;;;;;;;5096555;28;20464;-72
2021/01/21 06:03:12;;;;;;;4.90;1.20;;;;;;;;;;5096514;28;20460;-72
2021/01/21 06:05:39;;;;;;;2.60;1.20;;;;;;;;;;5096216;28;20470;-72
2021/01/21 06:08:06;;;;;;;2.73;1.07;;;;;;;;;;5096436;28;20452;-72
2021/01/21 06:10:35;;;;;;;2.03;1.10;;;;;;;;;;5095946;28;20460;-73
2021/01/21 06:13:06;;;;;;;4.17;1.20;;;;;;;;;;5096074;28;20452;-72
2021/01/21 06:15:34;;;;;;;1.70;0.73;;;;;;;;;;5096407;28;20578;-71
2021/01/21 06:18:02;;;;;;;3.50;1.53;;;;;;;;;;5095667;28;20456;-72
2021/01/21 06:20:30;;;;;;;2.90;1.40;;;;;;;;;;5094622;28;20770;-72
2021/01/21 06:22:57;;;;;;;3.00;1.00;;;;;;;;;;5096245;28;20471;-72
2021/01/21 06:25:26;;;;;;;4.17;1.40;;;;;;;;;;5095641;28;20792;-72
2021/01/21 06:27:54;;;;;;;1.90;0.67;;;;;;;;;;5096705;28;20467;-73
2021/01/21 06:30:22;;;;;;;3.70;1.20;;;;;;;;;;5092162;28;22041;-72
2021/01/21 06:32:58;;;;;;;4.13;1.30;;;;;;;;;;5093997;28;20456;-72
2021/01/21 06:35:31;;;;;;;4.67;1.10;;;;;;;;;;5095948;28;20455;-72
2021/01/21 06:38:01;;;;;;;1.93;0.93;;;;;;;;;;5096458;28;20516;-72
2021/01/21 06:40:29;;;;;;;2.30;1.13;;;;;;;;;;5095229;28;20907;-72
2021/01/21 06:43:01;;;;;;;2.57;1.37;;;;;;;;;;5095216;28;20932;-71
2021/01/21 06:45:29;;;;;;;2.50;1.00;;;;;;;;;;5095858;28;20463;-72
2021/01/21 06:47:57;;;;;;;3.20;1.63;;;;;;;;;;5096202;28;20471;-72
2021/01/21 06:50:28;;;;;;;4.43;1.93;;;;;;;;;;5094767;28;20477;-72
2021/01/21 06:53:00;;;;;;;1.90;0.93;;;;;;;;;;5095608;28;20855;-72
2021/01/21 06:55:28;;;;;;;2.03;0.80;;;;;;;;;;5095353;28;20899;-72
2021/01/21 06:57:56;;;;;;;4.37;1.10;;;;;;;;;;5096088;28;20458;-72
2021/01/21 07:00:40;;;;;;;3.30;1.30;;;;;;;;;;5097076;28;20492;-72
2021/01/21 07:03:08;;;;;;;2.20;1.10;;;;;;;;;;5095869;28;20525;-72
2021/01/21 07:05:36;;;;;;;2.30;1.10;;;;;;;;;;5096412;28;20940;-72
2021/01/21 07:08:08;;;;;;;2.73;1.13;;;;;;;;;;5096076;28;20554;-72
2021/01/21 07:10:42;;;;;;;3.73;1.10;;;;;;;;;;5095756;28;20521;-72
2021/01/21 07:13:11;;;;;;;2.30;1.10;;;;;;;;;;5094999;28;20744;-72
2021/01/21 07:15:42;;;;;;;2.50;1.20;;;;;;;;;;5094165;28;20452;-72
2021/01/21 07:18:18;;;;;;;4.00;1.47;;;;;;;;;;5093648;28;20543;-74
2021/01/21 07:21:17;;;;;;;4.10;1.37;;;;;;;;;;5094204;28;20464;-72
2021/01/21 07:23:46;;;;;;;2.07;1.00;;;;;;;;;;5012431;28;20479;-71
2021/01/21 07:26:22;;;;;;;2.07;1.00;;;;;;;;;;5076565;28;20467;-71
2021/01/21 07:29:08;;;;;;;4.07;1.60;;;;;;;;;;5093984;28;20444;-71
2021/01/21 07:31:55;;;;;;;2.83;1.10;;;;;;;;;;5094982;28;20758;-72
2021/01/21 07:34:28;;;;;;;3.23;1.10;;;;;;;;;;5095512;28;20448;-71
2021/01/21 07:37:15;;;;;;;3.57;1.40;;;;;;;;;;5098193;28;20683;-71
2021/01/21 07:39:54;;;;;;;2.60;1.20;;;;;;;;;;5097689;28;20476;-71
2021/01/21 07:42:22;;;;;;;2.00;0.97;;;;;;;;;;5098924;28;20472;-71
2021/01/21 07:45:03;;;;;;;3.03;1.10;;;;;;;;;;5098564;28;20497;-71
2021/01/21 07:47:36;;;;;;;2.30;1.07;;;;;;;;;;5096036;28;20869;-71
2021/01/21 07:50:23;;;;;;;2.30;1.07;;;;;;;;;;5098216;28;20483;-72
2021/01/21 07:52:57;;;;;;;1.97;0.87;;;;;;;;;;5099053;28;21136;-73
2021/01/21 07:55:32;;;;;;;3.93;1.53;;;;;;;;;;5097788;28;20452;-73
2021/01/21 07:58:27;;;;;;;2.33;0.90;;;;;;;;;;5096262;28;20495;-73
2021/01/21 08:00:56;;;;;;;2.07;1.00;;;;;;;;;;5078933;28;20483;-71
2021/01/21 08:03:28;;;;;;;2.33;0.90;;;;;;;;;;5081912;28;20804;-71
2021/01/21 08:06:03;;;;;;;3.53;1.07;;;;;;;;;;5097054;28;20463;-71
2021/01/21 08:08:31;;;;;;;1.80;1.00;;;;;;;;;;5098947;28;20517;-71
2021/01/21 08:11:03;;;;;;;2.87;1.07;;;;;;;;;;5089456;28;20856;-70
2021/01/21 08:13:31;;;;;;;3.30;1.50;;;;;;;;;;5097137;28;20483;-72
2021/01/21 08:15:58;;;;;;;2.20;0.90;;;;;;;;;;5096809;28;20457;-72
2021/01/21 08:18:26;;;;;;;3.77;0.90;;;;;;;;;;5099302;28;20456;-71
2021/01/21 08:20:54;;;;;;;1.50;0.60;;;;;;;;;;5097752;28;20482;-71
2021/01/21 08:23:26;;;;;;;1.50;0.50;;;;;;;;;;5098542;28;20468;-72
2021/01/21 08:25:55;;;;;;;1.50;0.50;;;;;;;;;;5095772;28;20475;-72
2021/01/21 08:28:28;;;;;;;1.43;0.50;;;;;;;;;;5098008;28;20887;-72
2021/01/21 08:30:59;;;;;;;1.83;0.60;;;;;;;;;;5079046;28;20586;-73
2021/01/21 08:33:31;;;;;;;1.50;0.50;;;;;;;;;;5079118;28;20467;-73
2021/01/21 08:36:04;;;;;;;1.50;0.50;;;;;;;;;;5078664;28;20457;-73
2021/01/21 08:38:40;;;;;;;1.40;0.50;;;;;;;;;;5087006;28;20452;-73
2021/01/21 08:41:08;;;;;;;1.73;0.50;;;;;;;;;;5096565;28;20495;-73
2021/01/21 08:43:40;;;;;;;1.80;0.50;;;;;;;;;;5096118;28;20459;-72
2021/01/21 08:46:12;;;;;;;2.23;0.57;;;;;;;;;;5096272;28;20459;-73
2021/01/21 08:48:43;;;;;;;2.47;0.60;;;;;;;;;;5097174;28;20788;-73
2021/01/21 08:51:34;;;;;;;2.43;0.60;;;;;;;;;;5097602;28;20452;-74
2021/01/21 08:54:13;;;;;;;2.17;0.60;;;;;;;;;;5097460;28;20520;-71
2021/01/21 08:56:41;;;;;;;1.40;0.50;;;;;;;;;;5093673;28;20460;-72
2021/01/21 08:59:30;;;;;;;1.30;0.50;;;;;;;;;;5096054;28;20523;-72
2021/01/21 09:01:58;;;;;;;1.90;0.50;;;;;;;;;;5097435;28;20519;-73
2021/01/21 09:04:26;;;;;;;1.43;0.60;;;;;;;;;;5096761;28;20452;-73
2021/01/21 09:06:59;;;;;;;1.73;0.70;;;;;;;;;;5096034;28;20466;-73
2021/01/21 09:09:30;;;;;;;3.10;0.80;;;;;;;;;;5089500;28;20467;-73
2021/01/21 09:11:57;;;;;;;1.50;0.50;;;;;;;;;;5076815;28;20499;-73
2021/01/21 09:14:26;;;;;;;1.60;0.60;;;;;;;;;;5076845;28;20453;-73
2021/01/21 09:16:55;;;;;;;2.40;0.70;;;;;;;;;;5076939;28;20461;-72
2021/01/21 09:19:42;;;;;;;1.60;0.60;;;;;;;;;;5076557;28;20485;-72
2021/01/21 09:22:11;;;;;;;2.27;0.60;;;;;;;;;;5076398;28;20465;-73
2021/01/21 09:24:53;;;;;;;2.03;0.70;;;;;;;;;;5076303;28;20449;-73
2021/01/21 09:27:22;;;;;;;2.37;0.80;;;;;;;;;;5093083;28;20494;-72
2021/01/21 09:29:51;;;;;;;1.60;0.60;;;;;;;;;;5096573;28;20525;-72
2021/01/21 09:32:20;;;;;;;2.50;0.80;;;;;;;;;;5097017;28;20450;-72
2021/01/21 09:34:58;;;;;;;5.63;1.03;;;;;;;;;;5095571;28;20445;-72
2021/01/21 09:37:30;;;;;;;3.87;0.63;;;;;;;;;;5096488;28;20499;-73
2021/01/21 09:39:59;;;;;;;3.20;0.70;;;;;;;;;;5096499;28;20491;-73
2021/01/21 09:42:27;;;;;;;1.50;0.50;;;;;;;;;;5095553;28;20862;-72
2021/01/21 09:44:55;;;;;;;2.53;0.80;;;;;;;;;;5097204;28;20558;-71
2021/01/21 09:47:24;;;;;;;1.60;0.60;;;;;;;;;;5093950;28;20456;-72
2021/01/21 09:49:52;;;;;;;2.50;1.33;;;;;;;;;;5085247;28;20492;-73
2021/01/21 09:52:19;;;;;;;3.13;0.90;;;;;;;;;;5097939;28;20436;-72
2021/01/21 09:54:47;;;;;;;3.27;0.97;;;;;;;;;;5096900;28;20452;-72
2021/01/21 09:57:16;;;;;;;2.80;0.80;;;;;;;;;;5096335;28;20456;-72
2021/01/21 09:59:45;;;;;;;5.40;0.80;;;;;;;;;;5094570;28;20586;-72
2021/01/21 10:02:15;;;;;;;3.73;0.70;;;;;;;;;;5077910;28;20468;-72
2021/01/21 10:04:48;;;;;;;1.73;0.70;;;;;;;;;;5087766;28;20460;-72
2021/01/21 10:07:16;;;;;;;1.90;0.70;;;;;;;;;;5097138;28;20467;-73
2021/01/21 10:09:43;;;;;;;4.07;1.00;;;;;;;;;;5095601;28;20518;-73
2021/01/21 10:12:11;;;;;;;4.33;0.70;;;;;;;;;;5097174;28;20524;-72
2021/01/21 10:14:39;;;;;;;2.47;0.90;;;;;;;;;;5099473;28;20529;-72
2021/01/21 10:17:08;;;;;;;4.70;1.23;;;;;;;;;;5096964;28;20451;-72
2021/01/21 10:19:38;;;;;;;3.90;1.50;;;;;;;;;;5096584;28;20495;-73
2021/01/21 10:22:07;;;;;;;3.03;1.33;;;;;;;;;;5115573;28;20450;-72
2021/01/21 10:24:34;;;;;;;3.57;1.67;;;;;;;;;;5116085;28;20474;-72
2021/01/21 10:27:05;;;;;;;2.70;1.30;;;;;;;;;;5103415;28;20543;-72
2021/01/21 10:29:39;;;;;;;3.97;1.87;;;;;;;;;;5096365;28;20456;-72
2021/01/21 10:32:06;;;;;;;3.80;1.00;;;;;;;;;;5095491;28;20472;-72
2021/01/21 10:34:34;;;;;;;3.07;1.40;;;;;;;;;;5095532;28;20750;-72
2021/01/21 10:37:02;;;;;;;3.03;0.73;;;;;;;;;;5095768;28;20600;-72
2021/01/21 10:39:33;;;;;;;2.20;0.80;;;;;;;;;;5096316;28;20540;-71
2021/01/21 10:42:01;;;;;;;2.90;1.50;;;;;;;;;;5094981;28;20471;-72
2021/01/21 10:44:28;;;;;;;5.20;2.97;;;;;;;;;;5095394;28;20548;-72
2021/01/21 10:46:57;;;;;;;5.00;2.03;;;;;;;;;;5095319;28;20514;-72
2021/01/21 10:49:25;;;;;;;5.73;1.33;;;;;;;;;;5095042;28;20460;-71
2021/01/21 10:51:56;;;;;;;5.50;1.10;;;;;;;;;;5094808;28;20459;-71
2021/01/21 10:54:23;;;;;;;4.30;1.90;;;;;;;;;;5095006;28;20562;-71
2021/01/21 10:56:55;;;;;;;7.53;1.40;;;;;;;;;;5095949;28;20535;-72
2021/01/21 10:59:22;;;;;;;8.00;1.83;;;;;;;;;;5094841;28;20514;-71
2021/01/21 11:01:50;;;;;;;5.93;2.27;;;;;;;;;;5094674;28;20521;-72
2021/01/21 11:04:17;;;;;;;7.97;1.70;;;;;;;;;;5094172;28;20547;-71
2021/01/21 11:06:56;;;;;;;1.97;0.83;;;;;;;;;;5094901;28;20532;-71
2021/01/21 11:09:35;;;;;;;2.77;1.63;;;;;;;;;;5093995;28;20676;-72
2021/01/21 11:14:55;;;;;;;2.00;0.60;;;;;;;;;;5094452;28;20479;-72
2021/01/21 11:17:26;;;;;;;4.70;1.33;;;;;;;;;;5093962;28;20480;-71
2021/01/21 11:19:57;;;;;;;4.97;1.20;;;;;;;;;;5074054;28;20908;-71
2021/01/21 11:22:25;;;;;;;3.30;0.93;;;;;;;;;;5091828;28;20509;-71
2021/01/21 11:24:56;;;;;;;5.23;0.90;;;;;;;;;;5093694;28;20540;-73
2021/01/21 11:27:25;;;;;;;4.80;1.17;;;;;;;;;;5093975;28;20452;-72
2021/01/21 11:29:52;;;;;;;3.37;1.20;;;;;;;;;;5094935;28;20500;-72
2021/01/21 11:32:20;;;;;;;3.40;1.00;;;;;;;;;;5091603;28;20456;-72
2021/01/21 11:34:47;;;;;;;3.70;0.80;;;;;;;;;;5094623;28;21029;-71
2021/01/21 11:37:15;;;;;;;2.57;0.80;;;;;;;;;;5094807;28;20452;-71
2021/01/21 11:39:42;;;;;;;3.13;1.40;;;;;;;;;;5095358;28;20902;-71
2021/01/21 11:42:12;;;;;;;2.53;0.80;;;;;;;;;;5088536;28;20897;-71
2021/01/21 11:44:40;;;;;;;3.10;1.17;;;;;;;;;;5079412;28;20558;-71
2021/01/21 11:47:07;;;;;;;5.30;1.87;;;;;;;;;;5093034;28;20448;-71
2021/01/21 11:49:35;;;;;;;2.07;0.80;;;;;;;;;;5094278;28;20532;-71
2021/01/21 11:52:02;;;;;;;6.33;1.00;;;;;;;;;;5093411;28;20458;-72
2021/01/21 11:54:34;;;;;;;2.83;1.30;;;;;;;;;;5091918;28;20454;-72
2021/01/21 11:57:02;;;;;;;2.10;0.80;;;;;;;;;;5094616;28;20452;-72
2021/01/21 11:59:32;;;;;;;3.50;1.07;;;;;;;;;;5093961;28;20551;-72
2021/01/21 12:02:01;;;;;;;3.53;1.10;;;;;;;;;;5094128;28;20543;-71
2021/01/21 12:04:31;;;;;;;3.00;0.83;;;;;;;;;;5095513;28;20468;-71
2021/01/21 12:07:03;;;;;;;2.93;1.00;;;;;;;;;;5095301;28;20525;-71
2021/01/21 12:09:31;;;;;;;2.83;0.60;;;;;;;;;;5094021;28;20572;-71
2021/01/21 12:11:59;;;;;;;3.10;1.17;;;;;;;;;;5095873;28;20459;-71
2021/01/21 12:14:26;;;;;;;5.00;1.20;;;;;;;;;;5093897;28;20463;-72
2021/01/21 12:16:54;;;;;;;6.63;1.53;;;;;;;;;;5095259;28;20550;-72
2021/01/21 12:19:22;;;;;;;4.53;1.20;;;;;;;;;;5093252;28;20494;-71
2021/01/21 12:24:50;;;;;;;4.70;1.50;;;;;;;;;;5154178;27;20632;-73
2021/01/21 12:27:18;;;;;;;3.07;1.00;;;;;;;;;;5131820;27;20534;-73
2021/01/21 12:29:45;;;;;;;2.60;1.17;;;;;;;;;;5126315;27;20876;-73
2021/01/21 12:32:17;;;;;;;3.67;1.30;;;;;;;;;;5128475;27;20456;-73
2021/01/21 12:34:52;;;;;;;2.13;0.90;;;;;;;;;;5130289;27;20698;-72
2021/01/21 12:37:20;;;;;;;3.63;1.53;;;;;;;;;;5112914;27;20462;-72
2021/01/21 12:39:48;;;;;;;3.30;1.00;;;;;;;;;;5128124;27;20455;-73
2021/01/21 12:42:15;;;;;;;4.03;1.10;;;;;;;;;;5113907;27;20464;-72
2021/01/21 12:44:42;;;;;;;12.50;1.23;;;;;;;;;;5115302;27;20741;-72
2021/01/21 12:47:09;;;;;;;4.20;1.20;;;;;;;;;;5113275;27;20808;-72
2021/01/21 12:49:36;;;;;;;5.73;0.93;;;;;;;;;;5129026;27;20469;-72
2021/01/21 12:52:08;;;;;;;3.50;1.10;;;;;;;;;;5132291;27;20470;-72
2021/01/21 12:54:36;;;;;;;3.43;1.60;;;;;;;;;;5131943;27;20446;-74
2021/01/21 12:57:04;;;;;;;7.73;1.27;;;;;;;;;;5133287;27;20764;-73
2021/01/21 12:59:31;;;;;;;4.00;1.10;;;;;;;;;;5129556;27;20520;-73
2021/01/21 13:01:58;;;;;;;4.53;0.97;;;;;;;;;;5133216;27;20863;-72
2021/01/21 13:04:32;;;;;;;2.33;0.90;;;;;;;;;;5130819;27;20486;-72
2021/01/21 13:07:00;;;;;;;1.83;0.93;;;;;;;;;;5131573;27;20443;-72
2021/01/21 13:09:27;;;;;;;4.80;1.00;;;;;;;;;;5131700;27;20458;-73
2021/01/21 13:11:54;;;;;;;4.50;1.10;;;;;;;;;;5133356;27;20844;-72
2021/01/21 13:14:25;;;;;;;2.30;1.20;;;;;;;;;;5133271;27;20456;-72
2021/01/21 13:16:52;;;;;;;2.80;1.10;;;;;;;;;;5131946;27;20920;-71
2021/01/21 13:19:20;;;;;;;5.40;1.13;;;;;;;;;;5126597;27;20937;-72
2021/01/21 13:21:47;;;;;;;3.40;1.03;;;;;;;;;;5129334;27;20555;-72
2021/01/21 13:24:14;;;;;;;5.43;1.23;;;;;;;;;;5119829;27;20548;-72
2021/01/21 13:26:43;;;;;;;2.57;1.20;;;;;;;;;;5126157;27;20438;-72
2021/01/21 13:29:10;;;;;;;5.73;1.43;;;;;;;;;;5117623;27;20493;-72
2021/01/21 13:31:40;;;;;;;4.17;1.00;;;;;;;;;;5113350;27;20538;-72
2021/01/21 13:34:07;;;;;;;4.23;1.30;;;;;;;;;;5119285;27;20513;-71
2021/01/21 13:36:35;;;;;;;3.73;1.20;;;;;;;;;;5097398;28;20535;-73
2021/01/21 13:39:02;;;;;;;4.43;0.90;;;;;;;;;;5097754;28;20556;-72
2021/01/21 13:41:30;;;;;;;2.90;1.37;;;;;;;;;;5099910;28;20452;-73
2021/01/21 13:44:00;;;;;;;5.60;1.20;;;;;;;;;;5098209;28;20488;-73
2021/01/21 13:46:29;;;;;;;2.40;1.20;;;;;;;;;;5098440;28;20922;-72
2021/01/21 13:49:02;;;;;;;2.30;1.10;;;;;;;;;;5096807;28;20733;-72
2021/01/21 13:51:47;;;;;;;2.80;1.27;;;;;;;;;;5097274;28;20468;-72
2021/01/21 13:54:15;;;;;;;3.20;1.13;;;;;;;;;;5097839;28;20463;-72
2021/01/21 13:56:43;;;;;;;5.67;1.43;;;;;;;;;;5097108;28;20460;-71
2021/01/21 13:59:10;;;;;;;5.43;1.30;;;;;;;;;;5097633;28;20436;-72
2021/01/21 14:01:39;;;;;;;4.37;1.30;;;;;;;;;;5096730;28;20453;-72
2021/01/21 14:04:14;;;;;;;5.53;1.27;;;;;;;;;;5098245;28;20488;-72
2021/01/21 14:06:41;;;;;;;7.07;1.60;;;;;;;;;;5097177;28;20463;-72
2021/01/21 14:09:08;;;;;;;7.40;2.20;;;;;;;;;;5116381;27;20485;-72
2021/01/21 14:11:36;;;;;;;4.50;0.97;;;;;;;;;;5138906;27;20726;-72
2021/01/21 14:14:03;;;;;;;5.10;1.30;;;;;;;;;;5137557;27;20447;-73
2021/01/21 14:16:30;;;;;;;3.27;1.20;;;;;;;;;;5117640;27;20768;-71
2021/01/21 14:18:58;;;;;;;3.60;1.43;;;;;;;;;;5117667;27;20482;-72
2021/01/21 14:21:28;;;;;;;7.40;1.93;;;;;;;;;;5117733;27;20456;-73
2021/01/21 14:23:55;;;;;;;2.73;1.77;;;;;;;;;;5116529;27;20905;-72
2021/01/21 14:26:23;;;;;;;5.33;1.10;;;;;;;;;;5116665;27;20451;-72
2021/01/21 14:28:50;;;;;;;3.03;1.10;;;;;;;;;;5117134;27;20435;-73
2021/01/21 14:31:21;;;;;;;3.93;1.30;;;;;;;;;;5116799;27;20772;-73
2021/01/21 14:33:49;;;;;;;4.20;1.37;;;;;;;;;;5117057;27;20462;-73
2021/01/21 14:36:19;;;;;;;3.07;1.13;;;;;;;;;;5111353;27;20457;-73
2021/01/21 14:38:48;;;;;;;5.30;1.30;;;;;;;;;;5113735;27;20452;-73
2021/01/21 14:41:16;;;;;;;2.93;1.00;;;;;;;;;;5118395;27;20459;-73
2021/01/21 14:43:43;;;;;;;5.37;1.50;;;;;;;;;;5118351;27;20809;-73
2021/01/21 14:46:10;;;;;;;4.00;0.90;;;;;;;;;;5117583;27;20451;-73
2021/01/21 14:48:38;;;;;;;2.30;0.90;;;;;;;;;;5116596;27;21130;-73
2021/01/21 14:51:06;;;;;;;2.20;1.00;;;;;;;;;;5117938;27;20860;-73
2021/01/21 14:53:33;;;;;;;2.70;1.20;;;;;;;;;;5115300;27;20734;-73
2021/01/21 14:56:01;;;;;;;6.13;2.17;;;;;;;;;;5116829;27;20544;-73
2021/01/21 14:58:29;;;;;;;13.40;1.70;;;;;;;;;;5116986;27;20883;-73
2021/01/21 15:01:06;;;;;;;2.90;1.07;;;;;;;;;;5103138;28;20574;-73
2021/01/21 15:03:38;;;;;;;2.90;0.90;;;;;;;;;;5103080;28;20484;-73